Погода Итапурангана неделю

Гояс, Бразилия

28 мая-03 июня
  • 28мая
    Сегодня
    +17°
    +31°
    Облачно с прояснениями
    ВремяПогодаТемператураВлажностьДавлениеВетер, м/сВероятность осадков
    00:00Ясно и безоблачно+20°C64 %711 мм2.0 м/с5 %
    03:00Практически безоблачно+19°C67 %711 мм2.7 м/с5 %
    06:00Облачно с прояснениями+18°C75 %711 мм3.4 м/с5 %
    09:00Облачно с прояснениями+23°C65 %713 мм2.9 м/с5 %
    12:00Облачно с прояснениями+29°C43 %713 мм2.4 м/с5 %
    15:00Облачно с прояснениями+30°C38 %712 мм1.1 м/с4 %
    18:00Облачно с прояснениями+27°C48 %711 мм0.9 м/с5 %
    21:00Практически безоблачно+22°C66 %712 мм3.2 м/с5 %
  • 29мая
    Среда
    +17°
    +31°
    Ясно и безоблачно
    ВремяПогодаТемператураВлажностьДавлениеВетер, м/сВероятность осадков
    00:00Ясно и безоблачно+20°C74 %712 мм3.5 м/с5 %
    03:00Ясно и безоблачно+18°C79 %711 мм3.0 м/с5 %
    06:00Ясно и безоблачно+18°C84 %711 мм2.6 м/с5 %
    09:00Ясно и безоблачно+22°C68 %713 мм3.4 м/с5 %
    12:00Ясно и безоблачно+29°C45 %713 мм2.7 м/с5 %
    15:00Ясно и безоблачно+31°C37 %711 мм1.2 м/с5 %
    18:00Ясно и безоблачно+27°C49 %711 мм0.8 м/с5 %
    21:00Ясно и безоблачно+22°C63 %711 мм2.5 м/с5 %
  • 30мая
    Четверг
    +18°
    +32°
    Ясно и безоблачно
    ВремяПогодаТемператураВлажностьДавлениеВетер, м/сВероятность осадков
    00:00Ясно и безоблачно+21°C68 %712 мм3.8 м/с5 %
    03:00Ясно и безоблачно+19°C73 %711 мм3.4 м/с5 %
    06:00Ясно и безоблачно+18°C78 %711 мм2.4 м/с5 %
    09:00Ясно и безоблачно+23°C62 %713 мм2.6 м/с5 %
    12:00Ясно и безоблачно+29°C41 %713 мм3.2 м/с5 %
    15:00Ясно и безоблачно+31°C34 %711 мм1.4 м/с5 %
    18:00Ясно и безоблачно+28°C43 %711 мм1.1 м/с5 %
    21:00Облачно с прояснениями+23°C51 %711 мм1.4 м/с5 %
  • 31мая
    Пятница
    +20°
    +32°
    Ясно и безоблачно
    ВремяПогодаТемператураВлажностьДавлениеВетер, м/сВероятность осадков
    00:00Ясно и безоблачно+22°C58 %712 мм4.1 м/с5 %
    03:00Ясно и безоблачно+20°C62 %711 мм3.2 м/с5 %
    06:00Ясно и безоблачно+19°C64 %711 мм2.8 м/с5 %
    09:00Ясно и безоблачно+24°C55 %713 мм2.5 м/с5 %
    12:00Ясно и безоблачно+29°C35 %713 мм3.5 м/с5 %
    15:00Ясно и безоблачно+31°C30 %711 мм1.9 м/с5 %
    18:00Практически безоблачно+27°C39 %711 мм1.9 м/с5 %
    21:00Облачно с прояснениями+24°C46 %711 мм1.7 м/с5 %
  • 01июня
    Суббота
    +18°
    +32°
    Ясно и безоблачно
    ВремяПогодаТемператураВлажностьДавлениеВетер, м/сВероятность осадков
    00:00Небольшая облачность+22°C44 %712 мм2.2 м/с5 %
    03:00Небольшая облачность+22°C46 %711 мм2.5 м/с5 %
    06:00Ясно и безоблачно+21°C54 %712 мм2.8 м/с5 %
    09:00Ясно и безоблачно+24°C52 %714 мм3.9 м/с5 %
    12:00Ясно и безоблачно+30°C33 %713 мм4.2 м/с5 %
    15:00Ясно и безоблачно+32°C28 %712 мм1.6 м/с5 %
    18:00Ясно и безоблачно+27°C36 %711 мм2.4 м/с5 %
    21:00Ясно и безоблачно+22°C45 %712 мм2.0 м/с5 %
Мы используем cookies
Соглашаюсь